MET'MAP v2.0
soon released !

Expected late october,
this new version will be
more efficient, smarter,
and hosted on a brand new
server x3 powerfull...
...and still free !


Not compatible ?
Try the mobile version !

LOG IN : | Subscribe | Disclaimer | Who is Orbifly ? |
ICAO code :
Legend : VFR Marginal VFR IFR Intensive IFR Very Intensive IFR
Visi :
Ceiling :
>= 8 km
>= 3000ft
5 to 8 km
1000 to 3000 ft
1500m to 5 km
500 to 1000 ft
800 to 1500m
200 to 500 ft
< 800m
< 200 ft

METAR - LKCV Čáslav Air Base - 02 Apr 2020 13:22 UTC - Data Source NOAA   


- Airport Elevation : 794 ft
- No reported NOTAMs.


LKCV - Čáslav Air Base

Latest METAR recorded : 2015/08/11 08:00 LKCV 110800Z 00000KT CAVOK 29/10 Q1015 NOSIG RMK BLU BLU
TAF TAF LKCV
Valid from the 02 at 06:00 until the 03 at 06:00 UTC


020500Z 0206/0306 13005KT CAVOK
BECMG 0207/0210 31006KT
BECMG 0214/0217 24006KT
TEMPO 0222/0304 25011KT

Source NOAA


MET'MAP, your aeronautical weather chart ! - Copyright ORBIFLY December 2007

Programming & Development : Alexandra Zaïnal
Co-Developer : Marc-Olivier Méhu
Technical & hardware support : Manuel Goepfert
Concept & Financing : Baudouin d'Aumeries